sensor_id;sensor_type;location;lat;lon;timestamp;temperature;humidity
13880;DHT22;7010;48.200;16.332;2022-07-24T00:01:34;24.80;88.30
13880;DHT22;7010;48.200;16.332;2022-07-24T00:04:03;24.80;88.70
13880;DHT22;7010;48.200;16.332;2022-07-24T00:06:33;24.70;89.10
13880;DHT22;7010;48.200;16.332;2022-07-24T00:09:01;24.70;90.00
13880;DHT22;7010;48.200;16.332;2022-07-24T00:11:30;24.70;89.60
13880;DHT22;7010;48.200;16.332;2022-07-24T00:13:58;24.70;90.00
13880;DHT22;7010;48.200;16.332;2022-07-24T00:16:27;24.70;90.10
13880;DHT22;7010;48.200;16.332;2022-07-24T00:18:56;24.60;90.20
13880;DHT22;7010;48.200;16.332;2022-07-24T00:21:24;24.60;90.30
13880;DHT22;7010;48.200;16.332;2022-07-24T00:23:54;24.60;90.50
13880;DHT22;7010;48.200;16.332;2022-07-24T00:26:22;24.60;90.80
13880;DHT22;7010;48.200;16.332;2022-07-24T00:28:50;24.50;90.60
13880;DHT22;7010;48.200;16.332;2022-07-24T00:31:18;24.50;90.70
13880;DHT22;7010;48.200;16.332;2022-07-24T00:33:47;24.50;90.80
13880;DHT22;7010;48.200;16.332;2022-07-24T00:36:16;24.50;90.90
13880;DHT22;7010;48.200;16.332;2022-07-24T00:38:44;24.50;91.00
13880;DHT22;7010;48.200;16.332;2022-07-24T00:41:14;24.50;91.20
13880;DHT22;7010;48.200;16.332;2022-07-24T00:44:02;24.50;91.30
13880;DHT22;7010;48.200;16.332;2022-07-24T00:46:31;24.40;91.60
13880;DHT22;7010;48.200;16.332;2022-07-24T00:48:59;24.40;91.50
13880;DHT22;7010;48.200;16.332;2022-07-24T00:51:28;24.40;91.60
13880;DHT22;7010;48.200;16.332;2022-07-24T00:53:57;24.40;91.80
13880;DHT22;7010;48.200;16.332;2022-07-24T00:56:26;24.40;91.90
13880;DHT22;7010;48.200;16.332;2022-07-24T00:58:55;24.30;92.20
13880;DHT22;7010;48.200;16.332;2022-07-24T01:01:23;24.30;92.50
13880;DHT22;7010;48.200;16.332;2022-07-24T01:03:52;24.20;92.70
13880;DHT22;7010;48.200;16.332;2022-07-24T01:06:20;24.10;93.00
13880;DHT22;7010;48.200;16.332;2022-07-24T01:08:50;24.10;93.20
13880;DHT22;7010;48.200;16.332;2022-07-24T01:11:19;24.10;93.50
13880;DHT22;7010;48.200;16.332;2022-07-24T01:13:49;24.10;93.80
13880;DHT22;7010;48.200;16.332;2022-07-24T01:16:18;24.00;94.10
13880;DHT22;7010;48.200;16.332;2022-07-24T01:18:47;23.90;94.40
13880;DHT22;7010;48.200;16.332;2022-07-24T01:21:17;23.90;94.80
13880;DHT22;7010;48.200;16.332;2022-07-24T01:23:46;23.90;95.10
13880;DHT22;7010;48.200;16.332;2022-07-24T01:26:15;23.90;95.50
13880;DHT22;7010;48.200;16.332;2022-07-24T01:28:43;23.90;95.80
13880;DHT22;7010;48.200;16.332;2022-07-24T01:31:11;23.90;96.30
13880;DHT22;7010;48.200;16.332;2022-07-24T01:33:40;23.80;96.60
13880;DHT22;7010;48.200;16.332;2022-07-24T01:36:08;23.80;97.30
13880;DHT22;7010;48.200;16.332;2022-07-24T01:38:38;23.70;97.70
13880;DHT22;7010;48.200;16.332;2022-07-24T01:41:06;23.70;98.40
13880;DHT22;7010;48.200;16.332;2022-07-24T01:43:35;23.70;99.00
13880;DHT22;7010;48.200;16.332;2022-07-24T01:46:03;23.70;99.60
13880;DHT22;7010;48.200;16.332;2022-07-24T01:48:31;23.70;99.90
13880;DHT22;7010;48.200;16.332;2022-07-24T01:51:00;23.60;99.90
13880;DHT22;7010;48.200;16.332;2022-07-24T01:53:28;23.60;99.90
13880;DHT22;7010;48.200;16.332;2022-07-24T01:55:58;23.60;99.90
13880;DHT22;7010;48.200;16.332;2022-07-24T01:58:27;23.60;99.90
13880;DHT22;7010;48.200;16.332;2022-07-24T02:00:55;23.50;99.90
13880;DHT22;7010;48.200;16.332;2022-07-24T02:03:23;23.40;99.90
13880;DHT22;7010;48.200;16.332;2022-07-24T02:05:51;23.40;99.90
13880;DHT22;7010;48.200;16.332;2022-07-24T02:08:20;23.40;99.90
13880;DHT22;7010;48.200;16.332;2022-07-24T02:10:48;23.30;99.90
13880;DHT22;7010;48.200;16.332;2022-07-24T02:13:18;23.20;99.90
13880;DHT22;7010;48.200;16.332;2022-07-24T02:15:46;23.20;99.90
13880;DHT22;7010;48.200;16.332;2022-07-24T02:18:14;23.10;99.90
13880;DHT22;7010;48.200;16.332;2022-07-24T02:20:43;23.10;99.90
13880;DHT22;7010;48.200;16.332;2022-07-24T02:23:11;23.00;99.90
13880;DHT22;7010;48.200;16.332;2022-07-24T02:25:45;23.00;99.90
13880;DHT22;7010;48.200;16.332;2022-07-24T02:28:14;23.00;99.90
13880;DHT22;7010;48.200;16.332;2022-07-24T02:30:44;22.90;99.90
13880;DHT22;7010;48.200;16.332;2022-07-24T02:33:13;22.90;99.90
13880;DHT22;7010;48.200;16.332;2022-07-24T02:35:41;22.90;99.90
13880;DHT22;7010;48.200;16.332;2022-07-24T02:38:09;22.90;99.90
13880;DHT22;7010;48.200;16.332;2022-07-24T02:40:38;22.90;99.90
13880;DHT22;7010;48.200;16.332;2022-07-24T02:43:06;22.90;99.90
13880;DHT22;7010;48.200;16.332;2022-07-24T02:45:34;22.90;99.90
13880;DHT22;7010;48.200;16.332;2022-07-24T02:48:05;22.90;99.90
13880;DHT22;7010;48.200;16.332;2022-07-24T02:50:34;22.80;99.90
13880;DHT22;7010;48.200;16.332;2022-07-24T02:53:05;22.80;99.90
13880;DHT22;7010;48.200;16.332;2022-07-24T02:55:34;22.70;99.90
13880;DHT22;7010;48.200;16.332;2022-07-24T02:58:02;22.70;99.90
13880;DHT22;7010;48.200;16.332;2022-07-24T03:00:31;22.60;99.90
13880;DHT22;7010;48.200;16.332;2022-07-24T03:03:00;22.60;99.90
13880;DHT22;7010;48.200;16.332;2022-07-24T03:05:29;22.60;99.90
13880;DHT22;7010;48.200;16.332;2022-07-24T03:07:58;22.60;99.90
13880;DHT22;7010;48.200;16.332;2022-07-24T03:10:26;22.60;99.90
13880;DHT22;7010;48.200;16.332;2022-07-24T03:12:55;22.50;99.90
13880;DHT22;7010;48.200;16.332;2022-07-24T03:15:23;22.50;99.90
13880;DHT22;7010;48.200;16.332;2022-07-24T03:17:53;22.50;99.90
13880;DHT22;7010;48.200;16.332;2022-07-24T03:20:24;22.40;99.90
13880;DHT22;7010;48.200;16.332;2022-07-24T03:22:54;22.40;99.90
13880;DHT22;7010;48.200;16.332;2022-07-24T03:25:23;22.40;99.90
13880;DHT22;7010;48.200;16.332;2022-07-24T03:27:51;22.30;99.90
13880;DHT22;7010;48.200;16.332;2022-07-24T03:30:22;22.30;99.90
13880;DHT22;7010;48.200;16.332;2022-07-24T03:32:50;22.30;99.90
13880;DHT22;7010;48.200;16.332;2022-07-24T03:35:19;22.20;99.90
13880;DHT22;7010;48.200;16.332;2022-07-24T03:37:47;22.20;99.90
13880;DHT22;7010;48.200;16.332;2022-07-24T03:40:17;22.10;99.90
13880;DHT22;7010;48.200;16.332;2022-07-24T03:42:45;22.10;99.90
13880;DHT22;7010;48.200;16.332;2022-07-24T03:45:14;22.10;99.90
13880;DHT22;7010;48.200;16.332;2022-07-24T03:47:42;22.10;99.90
13880;DHT22;7010;48.200;16.332;2022-07-24T03:50:10;22.10;99.90
13880;DHT22;7010;48.200;16.332;2022-07-24T03:52:42;22.10;99.90
13880;DHT22;7010;48.200;16.332;2022-07-24T03:55:10;22.10;99.90
13880;DHT22;7010;48.200;16.332;2022-07-24T03:57:40;22.00;99.90
13880;DHT22;7010;48.200;16.332;2022-07-24T04:00:09;22.00;99.90
13880;DHT22;7010;48.200;16.332;2022-07-24T04:02:38;22.00;99.90
13880;DHT22;7010;48.200;16.332;2022-07-24T04:05:07;22.00;99.90
13880;DHT22;7010;48.200;16.332;2022-07-24T04:07:36;22.00;99.90
13880;DHT22;7010;48.200;16.332;2022-07-24T04:10:06;22.00;99.90
13880;DHT22;7010;48.200;16.332;2022-07-24T04:12:34;22.00;99.90
13880;DHT22;7010;48.200;16.332;2022-07-24T04:15:05;22.00;99.90
13880;DHT22;7010;48.200;16.332;2022-07-24T04:17:37;22.00;99.90
13880;DHT22;7010;48.200;16.332;2022-07-24T04:20:07;22.10;99.90
13880;DHT22;7010;48.200;16.332;2022-07-24T04:22:36;22.10;99.90
13880;DHT22;7010;48.200;16.332;2022-07-24T04:25:06;22.10;99.90
13880;DHT22;7010;48.200;16.332;2022-07-24T04:27:35;22.10;99.90
13880;DHT22;7010;48.200;16.332;2022-07-24T04:30:06;22.20;99.90
13880;DHT22;7010;48.200;16.332;2022-07-24T04:32:34;22.20;99.90
13880;DHT22;7010;48.200;16.332;2022-07-24T04:35:03;22.20;99.90
13880;DHT22;7010;48.200;16.332;2022-07-24T04:37:31;22.30;99.90
13880;DHT22;7010;48.200;16.332;2022-07-24T04:40:00;22.30;99.90
13880;DHT22;7010;48.200;16.332;2022-07-24T04:42:28;22.40;99.90
13880;DHT22;7010;48.200;16.332;2022-07-24T04:44:56;22.40;99.90
13880;DHT22;7010;48.200;16.332;2022-07-24T04:47:26;22.50;99.90
13880;DHT22;7010;48.200;16.332;2022-07-24T04:49:55;22.50;99.90
13880;DHT22;7010;48.200;16.332;2022-07-24T04:52:23;22.60;99.90
13880;DHT22;7010;48.200;16.332;2022-07-24T04:54:51;22.60;99.90
13880;DHT22;7010;48.200;16.332;2022-07-24T04:57:20;22.60;99.90
13880;DHT22;7010;48.200;16.332;2022-07-24T04:59:48;22.70;99.90
13880;DHT22;7010;48.200;16.332;2022-07-24T05:02:16;22.80;99.90
13880;DHT22;7010;48.200;16.332;2022-07-24T05:04:46;22.80;99.90
13880;DHT22;7010;48.200;16.332;2022-07-24T05:07:14;22.80;99.90
13880;DHT22;7010;48.200;16.332;2022-07-24T05:09:43;22.80;99.90
13880;DHT22;7010;48.200;16.332;2022-07-24T05:12:11;22.80;99.90
13880;DHT22;7010;48.200;16.332;2022-07-24T05:14:39;22.70;99.90
13880;DHT22;7010;48.200;16.332;2022-07-24T05:17:08;22.80;99.90
13880;DHT22;7010;48.200;16.332;2022-07-24T05:19:36;22.80;99.90
13880;DHT22;7010;48.200;16.332;2022-07-24T05:22:06;22.80;99.90
13880;DHT22;7010;48.200;16.332;2022-07-24T05:24:34;22.80;99.90
13880;DHT22;7010;48.200;16.332;2022-07-24T05:27:03;22.80;99.90
13880;DHT22;7010;48.200;16.332;2022-07-24T05:29:38;22.90;99.90
13880;DHT22;7010;48.200;16.332;2022-07-24T05:32:08;22.90;99.90
13880;DHT22;7010;48.200;16.332;2022-07-24T05:34:36;23.00;99.90
13880;DHT22;7010;48.200;16.332;2022-07-24T05:37:09;23.10;99.90
13880;DHT22;7010;48.200;16.332;2022-07-24T05:39:37;23.20;99.90
13880;DHT22;7010;48.200;16.332;2022-07-24T05:42:06;23.20;99.90
13880;DHT22;7010;48.200;16.332;2022-07-24T05:44:34;23.30;99.90
13880;DHT22;7010;48.200;16.332;2022-07-24T05:47:04;23.10;99.90
13880;DHT22;7010;48.200;16.332;2022-07-24T05:49:33;23.20;99.90
13880;DHT22;7010;48.200;16.332;2022-07-24T05:52:02;23.20;99.90
13880;DHT22;7010;48.200;16.332;2022-07-24T05:54:37;23.20;99.90
13880;DHT22;7010;48.200;16.332;2022-07-24T05:57:05;23.30;99.90
13880;DHT22;7010;48.200;16.332;2022-07-24T05:59:34;23.30;99.90
13880;DHT22;7010;48.200;16.332;2022-07-24T06:02:02;23.40;99.90
13880;DHT22;7010;48.200;16.332;2022-07-24T06:04:31;23.40;99.90
13880;DHT22;7010;48.200;16.332;2022-07-24T06:07:02;23.50;99.90
13880;DHT22;7010;48.200;16.332;2022-07-24T06:09:31;23.50;99.90
13880;DHT22;7010;48.200;16.332;2022-07-24T06:12:00;23.60;99.90
13880;DHT22;7010;48.200;16.332;2022-07-24T06:14:29;23.70;99.90
13880;DHT22;7010;48.200;16.332;2022-07-24T06:16:58;23.80;99.90
13880;DHT22;7010;48.200;16.332;2022-07-24T06:19:27;23.70;99.90
13880;DHT22;7010;48.200;16.332;2022-07-24T06:21:55;23.80;99.90
13880;DHT22;7010;48.200;16.332;2022-07-24T06:24:25;23.90;99.90
13880;DHT22;7010;48.200;16.332;2022-07-24T06:26:53;23.90;99.90
13880;DHT22;7010;48.200;16.332;2022-07-24T06:29:40;24.00;99.90
13880;DHT22;7010;48.200;16.332;2022-07-24T06:32:09;24.10;99.90
13880;DHT22;7010;48.200;16.332;2022-07-24T06:34:37;24.10;99.90
13880;DHT22;7010;48.200;16.332;2022-07-24T06:37:05;24.10;99.90
13880;DHT22;7010;48.200;16.332;2022-07-24T06:39:33;24.20;99.90
13880;DHT22;7010;48.200;16.332;2022-07-24T06:42:02;24.30;99.90
13880;DHT22;7010;48.200;16.332;2022-07-24T06:44:30;24.40;99.90
13880;DHT22;7010;48.200;16.332;2022-07-24T06:47:02;24.50;99.90
13880;DHT22;7010;48.200;16.332;2022-07-24T06:49:30;24.60;99.90
13880;DHT22;7010;48.200;16.332;2022-07-24T06:51:58;24.70;99.90
13880;DHT22;7010;48.200;16.332;2022-07-24T06:54:27;24.80;99.90
13880;DHT22;7010;48.200;16.332;2022-07-24T06:56:55;24.90;99.90
13880;DHT22;7010;48.200;16.332;2022-07-24T06:59:23;25.00;99.90
13880;DHT22;7010;48.200;16.332;2022-07-24T07:01:52;25.10;99.90
13880;DHT22;7010;48.200;16.332;2022-07-24T07:04:22;25.20;99.90
13880;DHT22;7010;48.200;16.332;2022-07-24T07:06:50;25.40;99.90
13880;DHT22;7010;48.200;16.332;2022-07-24T07:09:18;25.70;99.40
13880;DHT22;7010;48.200;16.332;2022-07-24T07:11:47;25.70;99.20
13880;DHT22;7010;48.200;16.332;2022-07-24T07:14:18;25.70;98.20
13880;DHT22;7010;48.200;16.332;2022-07-24T07:16:46;25.50;98.40
13880;DHT22;7010;48.200;16.332;2022-07-24T07:19:15;25.70;98.80
13880;DHT22;7010;48.200;16.332;2022-07-24T07:21:44;25.70;98.00
13880;DHT22;7010;48.200;16.332;2022-07-24T07:24:13;25.70;98.30
13880;DHT22;7010;48.200;16.332;2022-07-24T07:26:41;25.80;98.40
13880;DHT22;7010;48.200;16.332;2022-07-24T07:29:09;26.10;97.80
13880;DHT22;7010;48.200;16.332;2022-07-24T07:31:38;26.70;96.60
13880;DHT22;7010;48.200;16.332;2022-07-24T07:34:06;27.40;95.80
13880;DHT22;7010;48.200;16.332;2022-07-24T07:36:35;28.50;93.10
13880;DHT22;7010;48.200;16.332;2022-07-24T07:39:05;29.40;90.70
13880;DHT22;7010;48.200;16.332;2022-07-24T07:41:34;29.90;85.20
13880;DHT22;7010;48.200;16.332;2022-07-24T07:44:04;30.60;84.70
13880;DHT22;7010;48.200;16.332;2022-07-24T07:46:33;31.60;77.70
13880;DHT22;7010;48.200;16.332;2022-07-24T07:49:02;32.60;73.40
13880;DHT22;7010;48.200;16.332;2022-07-24T07:51:31;33.10;70.20
13880;DHT22;7010;48.200;16.332;2022-07-24T07:53:59;33.50;66.80
13880;DHT22;7010;48.200;16.332;2022-07-24T07:56:29;34.00;63.30
13880;DHT22;7010;48.200;16.332;2022-07-24T07:58:59;34.10;62.40
13880;DHT22;7010;48.200;16.332;2022-07-24T08:01:27;34.50;61.40
13880;DHT22;7010;48.200;16.332;2022-07-24T08:03:56;34.80;60.30
13880;DHT22;7010;48.200;16.332;2022-07-24T08:06:24;34.20;60.50
13880;DHT22;7010;48.200;16.332;2022-07-24T08:08:53;35.00;58.90
13880;DHT22;7010;48.200;16.332;2022-07-24T08:11:22;35.90;58.70
13880;DHT22;7010;48.200;16.332;2022-07-24T08:13:51;36.60;56.90
13880;DHT22;7010;48.200;16.332;2022-07-24T08:16:20;36.80;55.00
13880;DHT22;7010;48.200;16.332;2022-07-24T08:18:48;36.90;50.90
13880;DHT22;7010;48.200;16.332;2022-07-24T08:21:18;37.10;52.80
13880;DHT22;7010;48.200;16.332;2022-07-24T08:23:46;37.50;53.00
13880;DHT22;7010;48.200;16.332;2022-07-24T08:26:15;37.90;50.30
13880;DHT22;7010;48.200;16.332;2022-07-24T08:28:43;38.50;49.80
13880;DHT22;7010;48.200;16.332;2022-07-24T08:31:13;38.70;47.20
13880;DHT22;7010;48.200;16.332;2022-07-24T08:33:42;39.30;46.70
13880;DHT22;7010;48.200;16.332;2022-07-24T08:36:10;38.40;46.10
13880;DHT22;7010;48.200;16.332;2022-07-24T08:38:38;38.80;47.50
13880;DHT22;7010;48.200;16.332;2022-07-24T08:41:07;38.70;46.80
13880;DHT22;7010;48.200;16.332;2022-07-24T08:43:35;38.90;46.80
13880;DHT22;7010;48.200;16.332;2022-07-24T08:46:08;39.60;45.30
13880;DHT22;7010;48.200;16.332;2022-07-24T08:48:42;40.00;44.70
13880;DHT22;7010;48.200;16.332;2022-07-24T08:51:12;40.00;42.50
13880;DHT22;7010;48.200;16.332;2022-07-24T08:53:43;39.40;43.00
13880;DHT22;7010;48.200;16.332;2022-07-24T08:56:11;39.00;44.90
13880;DHT22;7010;48.200;16.332;2022-07-24T08:58:40;39.10;43.30
13880;DHT22;7010;48.200;16.332;2022-07-24T09:01:09;39.00;44.00
13880;DHT22;7010;48.200;16.332;2022-07-24T09:03:43;39.00;42.10
13880;DHT22;7010;48.200;16.332;2022-07-24T09:06:14;39.30;42.20
13880;DHT22;7010;48.200;16.332;2022-07-24T09:08:55;38.90;41.80
13880;DHT22;7010;48.200;16.332;2022-07-24T09:11:24;38.90;42.10
13880;DHT22;7010;48.200;16.332;2022-07-24T09:13:53;38.30;42.20
13880;DHT22;7010;48.200;16.332;2022-07-24T09:16:38;38.20;42.20
13880;DHT22;7010;48.200;16.332;2022-07-24T09:19:09;38.60;42.00
13880;DHT22;7010;48.200;16.332;2022-07-24T09:21:43;38.40;41.00
13880;DHT22;7010;48.200;16.332;2022-07-24T09:24:18;39.00;42.00
13880;DHT22;7010;48.200;16.332;2022-07-24T09:26:48;39.50;41.00
13880;DHT22;7010;48.200;16.332;2022-07-24T09:29:18;39.70;40.80
13880;DHT22;7010;48.200;16.332;2022-07-24T09:31:54;39.90;39.00
13880;DHT22;7010;48.200;16.332;2022-07-24T09:34:25;39.50;39.20
13880;DHT22;7010;48.200;16.332;2022-07-24T09:36:58;38.20;41.70
13880;DHT22;7010;48.200;16.332;2022-07-24T09:39:27;38.40;42.30
13880;DHT22;7010;48.200;16.332;2022-07-24T09:41:56;38.90;42.40
13880;DHT22;7010;48.200;16.332;2022-07-24T09:44:25;38.30;41.80
13880;DHT22;7010;48.200;16.332;2022-07-24T09:46:56;38.00;42.00
13880;DHT22;7010;48.200;16.332;2022-07-24T09:49:27;37.50;42.10
13880;DHT22;7010;48.200;16.332;2022-07-24T09:52:08;36.90;42.40
13880;DHT22;7010;48.200;16.332;2022-07-24T09:54:39;37.30;43.10
13880;DHT22;7010;48.200;16.332;2022-07-24T09:57:16;37.60;41.80
13880;DHT22;7010;48.200;16.332;2022-07-24T09:59:46;37.80;42.10
13880;DHT22;7010;48.200;16.332;2022-07-24T10:02:24;38.00;41.50
13880;DHT22;7010;48.200;16.332;2022-07-24T10:04:56;38.40;41.90
13880;DHT22;7010;48.200;16.332;2022-07-24T10:07:26;38.90;41.00
13880;DHT22;7010;48.200;16.332;2022-07-24T10:09:58;39.10;39.70
13880;DHT22;7010;48.200;16.332;2022-07-24T10:12:29;38.60;39.80
13880;DHT22;7010;48.200;16.332;2022-07-24T10:14:59;38.60;40.00
13880;DHT22;7010;48.200;16.332;2022-07-24T10:17:43;38.60;40.10
13880;DHT22;7010;48.200;16.332;2022-07-24T10:20:24;38.50;40.10
13880;DHT22;7010;48.200;16.332;2022-07-24T10:23:21;38.70;39.60
13880;DHT22;7010;48.200;16.332;2022-07-24T10:25:55;39.30;40.60
13880;DHT22;7010;48.200;16.332;2022-07-24T10:28:36;39.50;39.20
13880;DHT22;7010;48.200;16.332;2022-07-24T10:31:06;39.90;39.80
13880;DHT22;7010;48.200;16.332;2022-07-24T10:33:36;39.60;38.80
13880;DHT22;7010;48.200;16.332;2022-07-24T10:36:15;39.20;39.10
13880;DHT22;7010;48.200;16.332;2022-07-24T10:38:55;38.60;39.60
13880;DHT22;7010;48.200;16.332;2022-07-24T10:41:25;38.50;40.40
13880;DHT22;7010;48.200;16.332;2022-07-24T10:44:14;38.70;41.10
13880;DHT22;7010;48.200;16.332;2022-07-24T10:46:58;39.20;40.80
13880;DHT22;7010;48.200;16.332;2022-07-24T10:49:39;39.30;39.80
13880;DHT22;7010;48.200;16.332;2022-07-24T10:52:12;39.20;40.00
13880;DHT22;7010;48.200;16.332;2022-07-24T10:54:48;39.50;40.90
13880;DHT22;7010;48.200;16.332;2022-07-24T10:57:16;39.50;39.90
13880;DHT22;7010;48.200;16.332;2022-07-24T10:59:44;38.70;39.60
13880;DHT22;7010;48.200;16.332;2022-07-24T11:02:33;39.00;40.50
13880;DHT22;7010;48.200;16.332;2022-07-24T11:05:29;39.10;40.50
13880;DHT22;7010;48.200;16.332;2022-07-24T11:08:25;38.20;40.00
13880;DHT22;7010;48.200;16.332;2022-07-24T11:10:59;38.40;40.50
13880;DHT22;7010;48.200;16.332;2022-07-24T11:13:46;38.20;40.20
13880;DHT22;7010;48.200;16.332;2022-07-24T11:16:19;38.00;40.40
13880;DHT22;7010;48.200;16.332;2022-07-24T11:19:28;37.70;40.70
13880;DHT22;7010;48.200;16.332;2022-07-24T11:22:09;37.50;40.50
13880;DHT22;7010;48.200;16.332;2022-07-24T11:25:09;38.10;41.20
13880;DHT22;7010;48.200;16.332;2022-07-24T11:27:45;38.50;40.30
13880;DHT22;7010;48.200;16.332;2022-07-24T11:30:14;38.40;40.50
13880;DHT22;7010;48.200;16.332;2022-07-24T11:32:43;38.70;40.40
13880;DHT22;7010;48.200;16.332;2022-07-24T11:35:12;39.10;40.10
13880;DHT22;7010;48.200;16.332;2022-07-24T11:37:41;39.40;39.70
13880;DHT22;7010;48.200;16.332;2022-07-24T11:40:15;39.60;39.60
13880;DHT22;7010;48.200;16.332;2022-07-24T11:42:44;39.50;40.10
13880;DHT22;7010;48.200;16.332;2022-07-24T11:45:13;39.50;39.60
13880;DHT22;7010;48.200;16.332;2022-07-24T11:47:41;39.40;39.70
13880;DHT22;7010;48.200;16.332;2022-07-24T11:50:09;39.40;40.80
13880;DHT22;7010;48.200;16.332;2022-07-24T11:52:39;39.40;39.40
13880;DHT22;7010;48.200;16.332;2022-07-24T11:55:09;39.60;39.80
13880;DHT22;7010;48.200;16.332;2022-07-24T11:57:46;39.60;39.80
13880;DHT22;7010;48.200;16.332;2022-07-24T12:00:34;39.80;39.20
13880;DHT22;7010;48.200;16.332;2022-07-24T12:03:03;40.10;38.30
13880;DHT22;7010;48.200;16.332;2022-07-24T12:05:35;40.00;39.10
13880;DHT22;7010;48.200;16.332;2022-07-24T12:08:16;39.90;38.50
13880;DHT22;7010;48.200;16.332;2022-07-24T12:10:45;39.40;38.80
13880;DHT22;7010;48.200;16.332;2022-07-24T12:13:17;39.00;40.20
13880;DHT22;7010;48.200;16.332;2022-07-24T12:15:45;38.60;39.90
13880;DHT22;7010;48.200;16.332;2022-07-24T12:18:14;37.80;39.40
13880;DHT22;7010;48.200;16.332;2022-07-24T12:20:48;37.90;40.20
13880;DHT22;7010;48.200;16.332;2022-07-24T12:23:16;37.70;40.30
13880;DHT22;7010;48.200;16.332;2022-07-24T12:25:46;37.70;40.80
13880;DHT22;7010;48.200;16.332;2022-07-24T12:28:19;37.00;40.90
13880;DHT22;7010;48.200;16.332;2022-07-24T12:30:49;36.20;42.30
13880;DHT22;7010;48.200;16.332;2022-07-24T12:33:22;36.30;42.50
13880;DHT22;7010;48.200;16.332;2022-07-24T12:35:53;36.20;42.80
13880;DHT22;7010;48.200;16.332;2022-07-24T12:38:26;36.10;42.70
13880;DHT22;7010;48.200;16.332;2022-07-24T12:41:05;36.10;42.50
13880;DHT22;7010;48.200;16.332;2022-07-24T12:43:46;36.10;43.00
13880;DHT22;7010;48.200;16.332;2022-07-24T12:46:16;36.40;43.00
13880;DHT22;7010;48.200;16.332;2022-07-24T12:48:57;36.80;42.50
13880;DHT22;7010;48.200;16.332;2022-07-24T12:51:25;36.60;42.80
13880;DHT22;7010;48.200;16.332;2022-07-24T12:53:55;36.80;42.50
13880;DHT22;7010;48.200;16.332;2022-07-24T12:56:23;36.60;42.50
13880;DHT22;7010;48.200;16.332;2022-07-24T12:58:58;36.60;42.60
13880;DHT22;7010;48.200;16.332;2022-07-24T13:01:45;36.50;42.50
13880;DHT22;7010;48.200;16.332;2022-07-24T13:04:17;36.50;43.40
13880;DHT22;7010;48.200;16.332;2022-07-24T13:06:48;35.70;43.20
13880;DHT22;7010;48.200;16.332;2022-07-24T13:09:17;35.50;43.90
13880;DHT22;7010;48.200;16.332;2022-07-24T13:11:48;35.50;44.20
13880;DHT22;7010;48.200;16.332;2022-07-24T13:14:19;35.50;43.70
13880;DHT22;7010;48.200;16.332;2022-07-24T13:16:49;35.10;44.40
13880;DHT22;7010;48.200;16.332;2022-07-24T13:19:20;35.10;44.70
13880;DHT22;7010;48.200;16.332;2022-07-24T13:21:48;35.30;44.50
13880;DHT22;7010;48.200;16.332;2022-07-24T13:24:17;35.70;44.80
13880;DHT22;7010;48.200;16.332;2022-07-24T13:26:49;36.20;44.70
13880;DHT22;7010;48.200;16.332;2022-07-24T13:29:19;36.60;43.90
13880;DHT22;7010;48.200;16.332;2022-07-24T13:31:47;36.70;42.90
13880;DHT22;7010;48.200;16.332;2022-07-24T13:34:16;36.60;42.50
13880;DHT22;7010;48.200;16.332;2022-07-24T13:36:44;36.60;43.10
13880;DHT22;7010;48.200;16.332;2022-07-24T13:39:14;36.30;43.20
13880;DHT22;7010;48.200;16.332;2022-07-24T13:41:43;36.20;43.80
13880;DHT22;7010;48.200;16.332;2022-07-24T13:44:11;36.10;44.20
13880;DHT22;7010;48.200;16.332;2022-07-24T13:46:42;36.00;44.10
13880;DHT22;7010;48.200;16.332;2022-07-24T13:49:10;36.00;44.40
13880;DHT22;7010;48.200;16.332;2022-07-24T13:51:41;36.30;44.40
13880;DHT22;7010;48.200;16.332;2022-07-24T13:54:09;36.50;43.10
13880;DHT22;7010;48.200;16.332;2022-07-24T13:56:38;36.60;42.90
13880;DHT22;7010;48.200;16.332;2022-07-24T13:59:07;36.40;43.10
13880;DHT22;7010;48.200;16.332;2022-07-24T14:01:35;36.40;43.00
13880;DHT22;7010;48.200;16.332;2022-07-24T14:04:05;36.20;43.80
13880;DHT22;7010;48.200;16.332;2022-07-24T14:06:54;36.30;43.00
13880;DHT22;7010;48.200;16.332;2022-07-24T14:09:24;36.00;43.70
13880;DHT22;7010;48.200;16.332;2022-07-24T14:11:53;35.80;43.10
13880;DHT22;7010;48.200;16.332;2022-07-24T14:14:23;35.80;43.40
13880;DHT22;7010;48.200;16.332;2022-07-24T14:16:51;35.70;43.30
13880;DHT22;7010;48.200;16.332;2022-07-24T14:19:24;35.20;43.60
13880;DHT22;7010;48.200;16.332;2022-07-24T14:21:52;35.20;43.70
13880;DHT22;7010;48.200;16.332;2022-07-24T14:24:20;35.20;43.20
13880;DHT22;7010;48.200;16.332;2022-07-24T14:26:49;34.90;42.80
13880;DHT22;7010;48.200;16.332;2022-07-24T14:29:17;34.70;43.40
13880;DHT22;7010;48.200;16.332;2022-07-24T14:31:46;34.50;43.60
13880;DHT22;7010;48.200;16.332;2022-07-24T14:34:14;34.20;45.40
13880;DHT22;7010;48.200;16.332;2022-07-24T14:36:44;33.90;44.50
13880;DHT22;7010;48.200;16.332;2022-07-24T14:39:13;33.80;44.80
13880;DHT22;7010;48.200;16.332;2022-07-24T14:41:46;33.70;44.40
13880;DHT22;7010;48.200;16.332;2022-07-24T14:44:14;33.70;45.50
13880;DHT22;7010;48.200;16.332;2022-07-24T14:46:43;33.70;44.90
13880;DHT22;7010;48.200;16.332;2022-07-24T14:49:12;33.70;44.20
13880;DHT22;7010;48.200;16.332;2022-07-24T14:51:43;33.60;44.90
13880;DHT22;7010;48.200;16.332;2022-07-24T14:54:13;33.30;45.00
13880;DHT22;7010;48.200;16.332;2022-07-24T14:56:41;33.30;45.50
13880;DHT22;7010;48.200;16.332;2022-07-24T14:59:09;33.10;45.00
13880;DHT22;7010;48.200;16.332;2022-07-24T15:01:47;33.20;45.40
13880;DHT22;7010;48.200;16.332;2022-07-24T15:04:15;33.20;45.40
13880;DHT22;7010;48.200;16.332;2022-07-24T15:06:44;33.40;45.20
13880;DHT22;7010;48.200;16.332;2022-07-24T15:09:14;33.40;45.00
13880;DHT22;7010;48.200;16.332;2022-07-24T15:11:42;33.50;45.80
13880;DHT22;7010;48.200;16.332;2022-07-24T15:14:10;33.20;45.20
13880;DHT22;7010;48.200;16.332;2022-07-24T15:16:39;33.00;45.50
13880;DHT22;7010;48.200;16.332;2022-07-24T15:19:07;32.90;45.40
13880;DHT22;7010;48.200;16.332;2022-07-24T15:21:37;32.90;45.40
13880;DHT22;7010;48.200;16.332;2022-07-24T15:24:06;32.80;45.90
13880;DHT22;7010;48.200;16.332;2022-07-24T15:26:37;32.70;45.30
13880;DHT22;7010;48.200;16.332;2022-07-24T15:29:06;32.70;45.70
13880;DHT22;7010;48.200;16.332;2022-07-24T15:31:35;32.60;46.20
13880;DHT22;7010;48.200;16.332;2022-07-24T15:34:04;32.60;46.50
13880;DHT22;7010;48.200;16.332;2022-07-24T15:36:35;32.70;45.80
13880;DHT22;7010;48.200;16.332;2022-07-24T15:41:32;32.80;46.00
13880;DHT22;7010;48.200;16.332;2022-07-24T15:44:02;32.70;46.30
13880;DHT22;7010;48.200;16.332;2022-07-24T15:46:34;32.70;46.80
13880;DHT22;7010;48.200;16.332;2022-07-24T15:49:04;32.70;46.70
13880;DHT22;7010;48.200;16.332;2022-07-24T15:51:33;32.60;46.50
13880;DHT22;7010;48.200;16.332;2022-07-24T15:54:02;32.50;46.70